createdAt,value
2018-10-02T00:00:26.901Z,72.24
2018-10-02T00:01:26.923Z,72.33
2018-10-02T00:02:26.931Z,72.43
2018-10-02T00:03:26.949Z,70.50
2018-10-02T00:04:27.075Z,69.45
2018-10-02T00:05:26.980Z,69.54
2018-10-02T00:06:26.992Z,69.54
2018-10-02T00:07:27.023Z,69.54
2018-10-02T00:08:27.038Z,68.48
2018-10-02T00:09:27.304Z,68.77
2018-10-02T00:10:27.064Z,69.54
2018-10-02T00:11:27.067Z,68.29
2018-10-02T00:12:27.081Z,68.38
2018-10-02T00:13:27.107Z,67.33
2018-10-02T00:14:27.218Z,67.71
2018-10-02T00:15:27.142Z,67.03
2018-10-02T00:16:27.145Z,67.90
2018-10-02T00:17:27.172Z,67.42
2018-10-02T00:18:27.187Z,67.52
2018-10-02T00:19:27.305Z,67.42
2018-10-02T00:20:27.199Z,68.00
2018-10-02T00:21:27.229Z,67.81
2018-10-02T00:22:27.228Z,67.90
2018-10-02T00:23:27.252Z,67.42
2018-10-02T00:24:27.375Z,67.42
2018-10-02T00:25:27.290Z,68.29
2018-10-02T00:26:27.304Z,67.42
2018-10-02T00:27:27.321Z,67.33
2018-10-02T00:28:27.335Z,67.42
2018-10-02T00:29:27.441Z,68.29
2018-10-02T00:30:27.353Z,68.48
2018-10-02T00:31:27.390Z,68.29
2018-10-02T00:32:27.586Z,68.38
2018-10-02T00:33:27.405Z,68.58
2018-10-02T00:34:27.512Z,68.58
2018-10-02T00:35:27.436Z,68.38
2018-10-02T00:36:27.442Z,68.77
2018-10-02T00:37:27.457Z,68.38
2018-10-02T00:38:27.469Z,68.19
2018-10-02T00:39:27.754Z,68.38
2018-10-02T00:40:27.502Z,67.90
2018-10-02T00:41:27.532Z,67.42
2018-10-02T00:42:27.543Z,67.42
2018-10-02T00:43:27.549Z,68.19
2018-10-02T00:44:27.666Z,67.23
2018-10-02T00:45:27.585Z,67.71
2018-10-02T00:46:27.600Z,67.52
2018-10-02T00:47:27.621Z,67.23
2018-10-02T00:48:27.623Z,67.42
2018-10-02T00:49:27.745Z,67.81
2018-10-02T00:50:27.663Z,67.52
2018-10-02T00:51:27.670Z,67.61
2018-10-02T00:52:27.679Z,67.33
2018-10-02T00:53:27.697Z,67.29
2018-10-02T00:54:27.813Z,67.52
2018-10-02T00:55:27.741Z,67.03
2018-10-02T00:56:27.756Z,67.68
2018-10-02T00:57:27.777Z,67.68
2018-10-02T00:58:27.787Z,67.49
2018-10-02T00:59:27.805Z,67.49
2018-10-02T01:00:27.903Z,67.39
2018-10-02T01:01:27.832Z,67.39
2018-10-02T01:02:27.845Z,66.81
2018-10-02T01:03:27.849Z,67.19
2018-10-02T01:04:27.867Z,67.68
2018-10-02T01:05:27.978Z,67.39
2018-10-02T01:06:27.894Z,67.29
2018-10-02T01:07:27.913Z,67.97
2018-10-02T01:08:27.934Z,67.29
2018-10-02T01:09:27.948Z,68.26
2018-10-02T01:10:28.052Z,66.62
2018-10-02T01:11:27.980Z,66.24
2018-10-02T01:12:27.981Z,66.24
2018-10-02T01:13:28.004Z,66.33
2018-10-02T01:14:28.008Z,66.33
2018-10-02T01:15:28.135Z,66.33
2018-10-02T01:16:28.033Z,66.42
2018-10-02T01:17:28.057Z,66.52
2018-10-02T01:18:28.133Z,66.52
2018-10-02T01:19:28.092Z,66.04
2018-10-02T01:20:28.247Z,66.14
2018-10-02T01:21:28.118Z,66.33
2018-10-02T01:22:28.130Z,65.85
2018-10-02T01:23:28.157Z,66.81
2018-10-02T01:24:28.157Z,66.42
2018-10-02T01:25:28.290Z,66.71
2018-10-02T01:26:28.188Z,66.33
2018-10-02T01:27:28.203Z,66.33
2018-10-02T01:28:28.215Z,66.24
2018-10-02T01:29:28.238Z,66.42
2018-10-02T01:30:28.491Z,65.75
2018-10-02T01:31:28.260Z,66.33
2018-10-02T01:32:28.267Z,66.52
2018-10-02T01:33:28.302Z,66.52
2018-10-02T01:34:28.316Z,66.33
2018-10-02T01:35:28.421Z,66.33
2018-10-02T01:36:28.335Z,66.62
2018-10-02T01:37:28.345Z,66.42
2018-10-02T01:38:28.356Z,66.42
2018-10-02T01:39:28.378Z,66.62
2018-10-02T01:40:28.500Z,66.91
2018-10-02T01:41:28.415Z,67.29
2018-10-02T01:42:28.428Z,67.49
2018-10-02T01:43:28.449Z,67.29
2018-10-02T01:44:28.462Z,67.19
2018-10-02T01:45:28.562Z,67.29
2018-10-02T01:46:28.482Z,67.29
2018-10-02T01:47:28.506Z,68.16
2018-10-02T01:48:28.510Z,68.06
2018-10-02T01:49:28.535Z,67.83
2018-10-02T01:50:28.645Z,68.16
2018-10-02T01:51:28.549Z,67.77
2018-10-02T01:52:28.567Z,68.44
2018-10-02T01:53:28.579Z,68.35
2018-10-02T01:54:28.607Z,68.44
2018-10-02T01:55:28.724Z,68.51
2018-10-02T01:56:28.633Z,68.35
2018-10-02T01:57:28.648Z,68.26
2018-10-02T01:58:28.665Z,68.26
2018-10-02T01:59:28.667Z,68.41
2018-10-02T02:00:28.780Z,68.35
2018-10-02T02:01:28.710Z,68.44
2018-10-02T02:02:28.720Z,68.16
2018-10-02T02:03:28.726Z,68.54
2018-10-02T02:04:28.746Z,68.41
2018-10-02T02:05:28.753Z,68.44
2018-10-02T02:06:28.932Z,68.64
2018-10-02T02:07:28.783Z,68.74
2018-10-02T02:08:28.800Z,68.84
2018-10-02T02:09:28.820Z,68.84
2018-10-02T02:10:28.827Z,68.60
2018-10-02T02:11:28.945Z,68.64
2018-10-02T02:12:28.862Z,68.54
2018-10-02T02:13:28.887Z,68.70
2018-10-02T02:14:28.888Z,68.80
2018-10-02T02:15:28.899Z,68.99
2018-10-02T02:16:29.027Z,68.80
2018-10-02T02:17:28.936Z,68.60
2018-10-02T02:18:28.942Z,68.90
2018-10-02T02:19:28.967Z,68.60
2018-10-02T02:20:28.973Z,68.70
2018-10-02T02:21:29.087Z,69.47
2018-10-02T02:22:29.006Z,68.99
2018-10-02T02:23:29.014Z,69.57
2018-10-02T02:24:29.039Z,69.38
2018-10-02T02:25:29.043Z,69.38
2018-10-02T02:26:29.159Z,69.57
2018-10-02T02:27:29.082Z,69.76
2018-10-02T02:28:29.092Z,70.15
2018-10-02T02:29:29.103Z,69.85
2018-10-02T02:30:29.113Z,70.05
2018-10-02T02:31:29.230Z,69.76
2018-10-02T02:32:29.153Z,70.05
2018-10-02T02:33:29.169Z,70.05
2018-10-02T02:34:29.184Z,69.95
2018-10-02T02:35:29.200Z,69.95
2018-10-02T02:36:29.310Z,70.34
2018-10-02T02:37:29.228Z,70.21
2018-10-02T02:38:29.230Z,70.53
2018-10-02T02:39:29.241Z,70.43
2018-10-02T02:40:29.257Z,70.92
2018-10-02T02:41:29.382Z,70.88
2018-10-02T02:42:29.304Z,71.75
2018-10-02T02:43:29.303Z,74.73
2018-10-02T02:44:29.328Z,75.79
2018-10-02T02:45:29.338Z,76.26
2018-10-02T02:46:29.507Z,76.26
2018-10-02T02:47:29.359Z,75.98
2018-10-02T02:48:29.371Z,76.75
2018-10-02T02:49:29.398Z,76.26
2018-10-02T02:50:29.407Z,76.75
2018-10-02T02:51:29.530Z,76.75
2018-10-02T02:52:29.479Z,77.04
2018-10-02T02:53:29.438Z,77.38
2018-10-02T02:54:29.473Z,76.56
2018-10-02T02:55:29.475Z,77.33
2018-10-02T02:56:29.599Z,77.67
2018-10-02T02:57:29.507Z,78.06
2018-10-02T02:58:29.531Z,78.06
2018-10-02T02:59:29.536Z,78.34
2018-10-02T03:00:29.550Z,78.53
2018-10-02T03:01:29.658Z,79.02
2018-10-02T03:02:29.591Z,79.30
2018-10-02T03:03:29.599Z,79.60
2018-10-02T03:04:29.610Z,79.69
2018-10-02T03:05:29.624Z,79.79
2018-10-02T03:06:29.788Z,78.15
2018-10-02T03:07:29.649Z,79.30
2018-10-02T03:08:29.659Z,78.83
2018-10-02T03:09:29.686Z,79.21
2018-10-02T03:10:29.686Z,79.21
2018-10-02T03:11:29.697Z,79.02
2018-10-02T03:12:29.829Z,79.21
2018-10-02T03:13:29.738Z,79.02
2018-10-02T03:14:29.753Z,78.44
2018-10-02T03:15:29.773Z,78.34
2018-10-02T03:16:29.771Z,78.83
2018-10-02T03:17:29.898Z,79.21
2018-10-02T03:18:29.799Z,78.25
2018-10-02T03:19:29.826Z,78.53
2018-10-02T03:20:29.837Z,78.25
2018-10-02T03:21:29.843Z,77.38
2018-10-02T03:22:30.099Z,78.25
2018-10-02T03:23:29.874Z,78.25
2018-10-02T03:24:29.891Z,79.40
2018-10-02T03:25:29.916Z,79.11
2018-10-02T03:26:29.909Z,79.21
2018-10-02T03:27:30.021Z,78.92
2018-10-02T03:28:29.934Z,78.53
2018-10-02T03:29:29.964Z,79.21
2018-10-02T03:30:29.980Z,79.21
2018-10-02T03:31:29.985Z,79.40
2018-10-02T03:32:30.111Z,79.21
2018-10-02T03:33:30.025Z,79.50
2018-10-02T03:34:30.057Z,79.30
2018-10-02T03:35:30.055Z,79.60
2018-10-02T03:36:30.065Z,79.88
2018-10-02T03:37:30.179Z,79.79
2018-10-02T03:38:30.094Z,79.79
2018-10-02T03:39:30.143Z,80.27
2018-10-02T03:40:30.139Z,80.36
2018-10-02T03:41:30.139Z,80.94
2018-10-02T03:42:30.252Z,80.27
2018-10-02T03:43:30.148Z,80.07
2018-10-02T03:44:30.160Z,80.27
2018-10-02T03:45:30.187Z,80.75
2018-10-02T03:46:30.191Z,80.55
2018-10-02T03:47:30.323Z,80.84
2018-10-02T03:48:30.232Z,80.36
2018-10-02T03:49:30.236Z,79.88
2018-10-02T03:50:30.247Z,80.27
2018-10-02T03:51:30.262Z,80.55
2018-10-02T03:52:30.383Z,80.75
2018-10-02T03:53:30.307Z,80.84
2018-10-02T03:54:30.308Z,81.32
2018-10-02T03:55:30.317Z,80.75
2018-10-02T03:56:30.345Z,80.61
2018-10-02T03:57:30.457Z,81.23
2018-10-02T03:58:30.364Z,80.90
2018-10-02T03:59:30.385Z,81.23
2018-10-02T04:00:30.385Z,81.23
2018-10-02T04:01:30.408Z,81.09
2018-10-02T04:02:30.526Z,81.57
2018-10-02T04:03:30.559Z,81.48
2018-10-02T04:04:30.442Z,81.52
2018-10-02T04:05:30.464Z,81.61
2018-10-02T04:06:30.473Z,82.05
2018-10-02T04:07:30.736Z,82.24
2018-10-02T04:08:30.502Z,82.43
2018-10-02T04:09:30.517Z,82.34
2018-10-02T04:10:30.547Z,82.43
2018-10-02T04:11:30.558Z,82.82
2018-10-02T04:12:30.654Z,82.63
2018-10-02T04:13:30.584Z,82.92
2018-10-02T04:14:30.594Z,82.92
2018-10-02T04:15:30.612Z,82.82
2018-10-02T04:16:30.628Z,83.40
2018-10-02T04:17:30.876Z,83.49
2018-10-02T04:18:30.655Z,83.69
2018-10-02T04:19:30.652Z,83.49
2018-10-02T04:20:30.701Z,83.11
2018-10-02T04:21:30.680Z,83.78
2018-10-02T04:22:30.708Z,83.87
2018-10-02T04:23:30.822Z,84.26
2018-10-02T04:24:30.719Z,84.74
2018-10-02T04:25:30.738Z,84.17
2018-10-02T04:26:30.762Z,84.45
2018-10-02T04:27:30.758Z,84.36
2018-10-02T04:28:30.990Z,83.59
2018-10-02T04:29:30.803Z,83.49
2018-10-02T04:30:30.822Z,83.87
2018-10-02T04:31:30.821Z,83.49
2018-10-02T04:32:30.834Z,83.20
2018-10-02T04:33:30.949Z,83.11
2018-10-02T04:34:30.862Z,82.82
2018-10-02T04:35:30.886Z,82.73
2018-10-02T04:36:30.883Z,82.92
2018-10-02T04:37:30.897Z,83.06
2018-10-02T04:38:31.013Z,83.15
2018-10-02T04:39:30.981Z,83.34
2018-10-02T04:40:30.937Z,82.73
2018-10-02T04:41:30.992Z,82.48
2018-10-02T04:42:30.974Z,82.24
2018-10-02T04:43:31.084Z,82.05
2018-10-02T04:44:30.999Z,82.48
2018-10-02T04:45:31.022Z,82.92
2018-10-02T04:46:31.024Z,82.82
2018-10-02T04:47:31.055Z,82.73
2018-10-02T04:48:31.158Z,82.29
2018-10-02T04:49:31.080Z,81.96
2018-10-02T04:50:31.093Z,81.38
2018-10-02T04:51:31.101Z,80.94
2018-10-02T04:52:31.119Z,82.29
2018-10-02T04:53:31.236Z,82.43
2018-10-02T04:54:31.136Z,82.73
2018-10-02T04:55:31.153Z,82.48
2018-10-02T04:56:31.165Z,82.43
2018-10-02T04:57:31.183Z,82.73
2018-10-02T04:58:31.298Z,82.53
2018-10-02T04:59:31.221Z,82.92
2018-10-02T05:00:31.221Z,83.01
2018-10-02T05:01:31.246Z,83.20
2018-10-02T05:02:31.254Z,83.11
2018-10-02T05:03:31.426Z,83.11
2018-10-02T05:04:31.291Z,83.20
2018-10-02T05:05:31.289Z,82.73
2018-10-02T05:06:31.349Z,82.92
2018-10-02T05:07:31.318Z,82.73
2018-10-02T05:08:31.620Z,83.20
2018-10-02T05:09:31.358Z,83.01
2018-10-02T05:10:31.374Z,83.30
2018-10-02T05:11:31.376Z,83.11
2018-10-02T05:12:31.398Z,83.69
2018-10-02T05:13:31.500Z,83.69
2018-10-02T05:14:31.430Z,83.30
2018-10-02T05:15:31.448Z,83.40
2018-10-02T05:16:31.457Z,83.49
2018-10-02T05:17:31.465Z,83.40
2018-10-02T05:18:31.584Z,83.78
2018-10-02T05:19:31.487Z,83.49
2018-10-02T05:20:31.565Z,83.49
2018-10-02T05:21:31.516Z,84.17
2018-10-02T05:22:31.530Z,84.36
2018-10-02T05:23:31.656Z,84.36
2018-10-02T05:24:31.567Z,84.94
2018-10-02T05:25:31.565Z,84.94
2018-10-02T05:26:31.584Z,84.94
2018-10-02T05:27:31.622Z,85.80
2018-10-02T05:28:31.726Z,84.84
2018-10-02T05:29:31.673Z,84.17
2018-10-02T05:30:31.639Z,84.26
2018-10-02T05:31:31.664Z,84.45
2018-10-02T05:32:31.664Z,84.17
2018-10-02T05:33:31.798Z,84.74
2018-10-02T05:34:31.703Z,84.74
2018-10-02T05:35:31.787Z,84.45
2018-10-02T05:36:31.731Z,84.07
2018-10-02T05:37:31.742Z,84.45
2018-10-02T05:38:31.844Z,85.28
2018-10-02T05:39:31.773Z,85.51
2018-10-02T05:40:31.776Z,86.47
2018-10-02T05:41:31.800Z,86.38
2018-10-02T05:42:31.846Z,86.66
2018-10-02T05:43:31.912Z,87.01
2018-10-02T05:44:31.834Z,86.85
2018-10-02T05:45:31.843Z,87.68
2018-10-02T05:46:31.876Z,87.49
2018-10-02T05:47:31.871Z,87.87
2018-10-02T05:48:32.000Z,88.25
2018-10-02T05:49:31.914Z,88.35
2018-10-02T05:50:31.969Z,88.73
2018-10-02T05:51:31.926Z,89.36
2018-10-02T05:52:31.946Z,88.73
2018-10-02T05:53:32.210Z,88.83
2018-10-02T05:54:31.966Z,88.93
2018-10-02T05:55:31.979Z,88.93
2018-10-02T05:56:32.008Z,88.83
2018-10-02T05:57:32.025Z,88.54
2018-10-02T05:58:32.205Z,88.35
2018-10-02T05:59:32.050Z,88.16
2018-10-02T06:00:32.059Z,87.96
2018-10-02T06:01:32.061Z,87.39
2018-10-02T06:02:32.089Z,87.19
2018-10-02T06:03:32.200Z,86.91
2018-10-02T06:04:32.119Z,87.15
2018-10-02T06:05:32.119Z,86.52
2018-10-02T06:06:32.144Z,88.25
2018-10-02T06:07:32.153Z,87.87
2018-10-02T06:08:32.322Z,88.16
2018-10-02T06:09:32.187Z,87.58
2018-10-02T06:10:32.199Z,87.58
2018-10-02T06:11:32.201Z,86.72
2018-10-02T06:12:32.216Z,86.57
2018-10-02T06:13:32.339Z,86.28
2018-10-02T06:14:32.251Z,85.80
2018-10-02T06:15:32.261Z,85.71
2018-10-02T06:16:32.277Z,85.41
2018-10-02T06:17:32.293Z,84.99
2018-10-02T06:18:32.499Z,84.31
2018-10-02T06:19:32.309Z,83.69
2018-10-02T06:20:32.338Z,83.49
2018-10-02T06:21:32.337Z,83.30
2018-10-02T06:22:32.368Z,82.92
2018-10-02T06:23:32.632Z,82.82
2018-10-02T06:24:32.438Z,82.82
2018-10-02T06:25:32.385Z,82.34
2018-10-02T06:26:32.401Z,82.43
2018-10-02T06:27:32.431Z,83.01
2018-10-02T06:28:32.536Z,82.24
2018-10-02T06:29:32.451Z,82.34
2018-10-02T06:30:32.462Z,82.63
2018-10-02T06:31:32.473Z,82.34
2018-10-02T06:32:32.531Z,82.43
2018-10-02T06:33:32.594Z,82.05
2018-10-02T06:34:32.527Z,82.05
2018-10-02T06:35:32.542Z,82.15
2018-10-02T06:36:32.550Z,82.05
2018-10-02T06:37:32.550Z,81.86
2018-10-02T06:38:33.085Z,82.05
2018-10-02T06:39:32.599Z,82.15
2018-10-02T06:40:32.601Z,82.20
2018-10-02T06:41:32.605Z,82.49
2018-10-02T06:42:32.633Z,83.45
2018-10-02T06:43:32.694Z,84.41
2018-10-02T06:44:32.835Z,84.12
2018-10-02T06:45:32.674Z,83.93
2018-10-02T06:46:32.674Z,83.74
2018-10-02T06:47:32.690Z,84.12
2018-10-02T06:48:32.728Z,84.31
2018-10-02T06:49:32.732Z,84.31
2018-10-02T06:50:32.867Z,84.12
2018-10-02T06:51:32.920Z,84.41
2018-10-02T06:52:33.025Z,83.45
2018-10-02T06:53:32.769Z,83.45
2018-10-02T06:54:32.784Z,83.84
2018-10-02T06:55:32.901Z,84.12
2018-10-02T06:56:32.833Z,84.41
2018-10-02T06:57:32.825Z,84.03
2018-10-02T06:58:32.839Z,84.31
2018-10-02T06:59:32.864Z,84.99
2018-10-02T07:00:32.987Z,84.41
2018-10-02T07:01:32.889Z,84.80
2018-10-02T07:02:32.994Z,84.80
2018-10-02T07:03:32.906Z,84.89
2018-10-02T07:04:32.918Z,84.89
2018-10-02T07:05:33.038Z,84.60
2018-10-02T07:06:32.997Z,84.89
2018-10-02T07:07:32.968Z,85.08
2018-10-02T07:08:33.021Z,85.47
2018-10-02T07:09:32.985Z,85.57
2018-10-02T07:10:33.156Z,86.14
2018-10-02T07:11:33.010Z,87.01
2018-10-02T07:12:33.059Z,87.58
2018-10-02T07:13:33.034Z,87.39
2018-10-02T07:14:33.077Z,87.58
2018-10-02T07:15:33.176Z,87.29
2018-10-02T07:16:33.088Z,87.10
2018-10-02T07:17:33.187Z,86.81
2018-10-02T07:18:33.101Z,86.91
2018-10-02T07:19:33.117Z,86.72
2018-10-02T07:20:33.279Z,86.62
2018-10-02T07:21:33.158Z,87.01
2018-10-02T07:22:33.172Z,87.01
2018-10-02T07:23:33.180Z,86.52
2018-10-02T07:24:33.194Z,86.72
2018-10-02T07:25:33.388Z,87.01
2018-10-02T07:26:33.281Z,86.81
2018-10-02T07:27:33.344Z,87.58
2018-10-02T07:28:33.252Z,86.91
2018-10-02T07:29:33.261Z,87.39
2018-10-02T07:30:33.429Z,87.49
2018-10-02T07:31:33.281Z,87.39
2018-10-02T07:32:33.317Z,87.68
2018-10-02T07:33:33.304Z,87.77
2018-10-02T07:34:33.325Z,87.58
2018-10-02T07:35:33.435Z,87.49
2018-10-02T07:36:33.418Z,87.77
2018-10-02T07:37:33.369Z,87.39
2018-10-02T07:38:33.413Z,87.29
2018-10-02T07:39:33.384Z,87.58
2018-10-02T07:40:33.512Z,86.72
2018-10-02T07:41:33.452Z,86.72
2018-10-02T07:42:33.442Z,86.91
2018-10-02T07:43:33.458Z,86.72
2018-10-02T07:44:33.581Z,86.91
2018-10-02T07:45:33.567Z,86.33
2018-10-02T07:46:33.491Z,86.33
2018-10-02T07:47:33.526Z,86.91
2018-10-02T07:48:33.580Z,86.52
2018-10-02T07:49:33.519Z,86.62
2018-10-02T07:50:33.789Z,86.14
2018-10-02T07:51:33.548Z,86.33
2018-10-02T07:52:33.566Z,85.95
2018-10-02T07:53:33.609Z,85.75
2018-10-02T07:54:33.598Z,86.33
2018-10-02T07:55:33.667Z,86.33
2018-10-02T07:56:33.829Z,86.24
2018-10-02T07:57:33.631Z,86.14
2018-10-02T07:58:33.641Z,86.72
2018-10-02T07:59:33.679Z,86.05
2018-10-02T08:00:33.671Z,86.33
2018-10-02T08:01:33.696Z,85.66
2018-10-02T08:02:33.897Z,85.57
2018-10-02T08:03:33.709Z,85.57
2018-10-02T08:04:33.728Z,85.28
2018-10-02T08:05:33.770Z,84.70
2018-10-02T08:06:33.749Z,84.99
2018-10-02T08:07:33.913Z,84.99
2018-10-02T08:08:33.821Z,84.60
2018-10-02T08:09:33.791Z,83.26
2018-10-02T08:10:33.804Z,82.68
2018-10-02T08:11:33.876Z,82.20
2018-10-02T08:12:33.943Z,82.40
2018-10-02T08:13:33.938Z,83.07
2018-10-02T08:14:33.916Z,82.59
2018-10-02T08:15:33.881Z,82.68
2018-10-02T08:16:33.898Z,82.20
2018-10-02T08:17:34.088Z,82.49
2018-10-02T08:18:33.914Z,83.07
2018-10-02T08:19:33.940Z,82.63
2018-10-02T08:20:34.010Z,82.78
2018-10-02T08:21:33.956Z,82.20
2018-10-02T08:22:34.063Z,82.30
2018-10-02T08:23:34.039Z,81.92
2018-10-02T08:24:33.992Z,82.01
2018-10-02T08:25:34.007Z,82.10
2018-10-02T08:26:34.046Z,81.92
2018-10-02T08:27:34.142Z,82.01
2018-10-02T08:28:34.062Z,80.76
2018-10-02T08:29:34.178Z,81.05
2018-10-02T08:30:34.086Z,81.43
2018-10-02T08:31:34.104Z,81.34
2018-10-02T08:32:34.282Z,80.96
2018-10-02T08:33:34.126Z,80.28
2018-10-02T08:34:34.140Z,80.38
2018-10-02T08:35:34.226Z,80.76
2018-10-02T08:36:34.280Z,80.96
2018-10-02T08:37:34.432Z,81.15
2018-10-02T08:38:34.254Z,81.53
2018-10-02T08:39:34.197Z,81.43
2018-10-02T08:40:34.210Z,81.63
2018-10-02T08:41:34.224Z,81.82
2018-10-02T08:42:34.347Z,81.82
2018-10-02T08:43:34.361Z,81.92
2018-10-02T08:44:34.281Z,82.30
2018-10-02T08:45:34.275Z,82.40
2018-10-02T08:46:34.295Z,82.40
2018-10-02T08:47:34.478Z,82.40
2018-10-02T08:48:34.359Z,83.16
2018-10-02T08:49:34.332Z,81.38
2018-10-02T08:50:34.423Z,83.36
2018-10-02T08:51:34.357Z,81.09
2018-10-02T08:52:34.480Z,83.45
2018-10-02T08:53:34.398Z,82.24
2018-10-02T08:54:34.402Z,80.22
2018-10-02T08:55:34.415Z,80.32
2018-10-02T08:56:34.424Z,80.80
2018-10-02T08:57:34.552Z,80.80
2018-10-02T08:58:34.466Z,80.90
2018-10-02T08:59:34.477Z,81.09
2018-10-02T09:00:34.584Z,80.80
2018-10-02T09:01:34.521Z,80.13
2018-10-02T09:02:34.607Z,79.36
2018-10-02T09:03:34.525Z,79.46
2018-10-02T09:04:34.544Z,79.07
2018-10-02T09:05:34.561Z,78.21
2018-10-02T09:06:34.598Z,78.59
2018-10-02T09:07:34.821Z,78.78
2018-10-02T09:08:34.600Z,78.88
2018-10-02T09:09:34.608Z,79.07
2018-10-02T09:10:34.617Z,79.17
2018-10-02T09:11:34.633Z,79.17
2018-10-02T09:12:34.701Z,78.40
2018-10-02T09:13:34.770Z,78.02
2018-10-02T09:14:34.683Z,77.92
2018-10-02T09:15:34.715Z,78.15
2018-10-02T09:16:34.813Z,77.73
2018-10-02T09:17:34.712Z,77.29
2018-10-02T09:18:34.910Z,77.38
2018-10-02T09:19:34.741Z,77.38
2018-10-02T09:20:34.797Z,76.90
2018-10-02T09:21:34.817Z,75.94
2018-10-02T09:22:34.787Z,76.23
2018-10-02T09:23:34.949Z,76.04
2018-10-02T09:24:34.881Z,76.14
2018-10-02T09:25:34.834Z,75.46
2018-10-02T09:26:34.834Z,75.27
2018-10-02T09:27:34.972Z,74.69
2018-10-02T09:28:35.072Z,74.40
2018-10-02T09:29:34.879Z,73.92
2018-10-02T09:30:34.908Z,74.40
2018-10-02T09:31:34.918Z,74.11
2018-10-02T09:32:34.918Z,74.11
2018-10-02T09:33:35.055Z,73.35
2018-10-02T09:34:34.949Z,72.86
2018-10-02T09:35:34.966Z,72.67
2018-10-02T09:36:35.030Z,72.77
2018-10-02T09:37:35.003Z,72.67
2018-10-02T09:38:35.111Z,72.29
2018-10-02T09:39:35.041Z,71.65
2018-10-02T09:40:35.045Z,71.65
2018-10-02T09:41:35.048Z,71.75
2018-10-02T09:42:35.165Z,70.84
2018-10-02T09:43:35.273Z,71.46
2018-10-02T09:44:35.087Z,71.75
2018-10-02T09:45:35.111Z,70.78
2018-10-02T09:46:35.117Z,71.55
2018-10-02T09:47:35.139Z,71.17
2018-10-02T09:48:35.298Z,70.50
2018-10-02T09:49:35.172Z,69.82
2018-10-02T09:50:35.206Z,69.82
2018-10-02T09:51:35.200Z,69.34
2018-10-02T09:52:35.203Z,68.67
2018-10-02T09:53:35.491Z,68.48
2018-10-02T09:54:35.299Z,67.90
2018-10-02T09:55:35.260Z,68.19
2018-10-02T09:56:35.313Z,68.38
2018-10-02T09:57:35.279Z,68.29
2018-10-02T09:58:35.408Z,67.90
2018-10-02T09:59:35.319Z,67.71
2018-10-02T10:00:35.353Z,67.74
2018-10-02T10:01:35.333Z,67.74
2018-10-02T10:02:35.376Z,68.03
2018-10-02T10:03:35.473Z,66.30
2018-10-02T10:04:35.391Z,65.81
2018-10-02T10:05:35.401Z,65.72
2018-10-02T10:06:35.408Z,66.30
2018-10-02T10:07:35.435Z,65.72
2018-10-02T10:08:35.548Z,65.43
2018-10-02T10:09:35.468Z,65.17
2018-10-02T10:10:35.522Z,65.94
2018-10-02T10:11:35.496Z,65.85
2018-10-02T10:12:35.500Z,63.64
2018-10-02T10:13:35.618Z,64.40
2018-10-02T10:14:35.542Z,65.94
2018-10-02T10:15:35.553Z,62.96
2018-10-02T10:16:35.602Z,62.12
2018-10-02T10:17:35.579Z,61.22
2018-10-02T10:18:35.697Z,61.32
2018-10-02T10:19:35.621Z,62.09
2018-10-02T10:20:35.635Z,62.09
2018-10-02T10:21:35.655Z,61.55
2018-10-02T10:22:35.662Z,60.20
2018-10-02T10:23:35.672Z,60.30
2018-10-02T10:24:35.797Z,59.81
2018-10-02T10:25:35.700Z,60.20
2018-10-02T10:26:35.755Z,60.39
2018-10-02T10:27:35.748Z,60.00
2018-10-02T10:28:35.814Z,60.39
2018-10-02T10:29:35.928Z,60.58
2018-10-02T10:30:35.786Z,60.39
2018-10-02T10:31:35.803Z,60.49
2018-10-02T10:32:35.821Z,60.20
2018-10-02T10:33:35.867Z,59.72
2018-10-02T10:34:36.136Z,60.30
2018-10-02T10:35:35.877Z,60.49
2018-10-02T10:36:35.891Z,60.20
2018-10-02T10:37:35.913Z,60.30
2018-10-02T10:38:35.929Z,60.39
2018-10-02T10:39:36.039Z,61.55
2018-10-02T10:40:35.965Z,59.81
2018-10-02T10:41:35.979Z,60.03
2018-10-02T10:42:35.978Z,59.94
2018-10-02T10:43:35.992Z,58.78
2018-10-02T10:44:36.115Z,58.69
2018-10-02T10:45:36.036Z,59.75
2018-10-02T10:46:36.089Z,58.91
2018-10-02T10:47:36.107Z,59.17
2018-10-02T10:48:36.091Z,58.72
2018-10-02T10:49:36.256Z,57.37
2018-10-02T10:50:36.119Z,57.01
2018-10-02T10:51:36.129Z,55.66
2018-10-02T10:52:36.220Z,55.76
2018-10-02T10:53:36.160Z,55.46
2018-10-02T10:54:36.280Z,54.60
2018-10-02T10:55:36.197Z,54.60
2018-10-02T10:56:36.340Z,54.69
2018-10-02T10:57:36.231Z,54.02
2018-10-02T10:58:36.340Z,54.69
2018-10-02T10:59:36.368Z,54.21
2018-10-02T11:00:36.297Z,54.60
2018-10-02T11:01:36.311Z,54.02
2018-10-02T11:02:36.331Z,52.79
2018-10-02T11:03:36.332Z,52.59
2018-10-02T11:04:36.708Z,52.79
2018-10-02T11:05:36.378Z,51.15
2018-10-02T11:06:36.387Z,51.15
2018-10-02T11:07:36.414Z,51.37
2018-10-02T11:08:36.423Z,51.27
2018-10-02T11:09:36.513Z,51.56
2018-10-02T11:10:36.558Z,50.21
2018-10-02T11:11:36.484Z,50.21
2018-10-02T11:12:36.503Z,50.31
2018-10-02T11:13:36.534Z,49.92
2018-10-02T11:14:36.543Z,50.69
2018-10-02T11:15:36.647Z,50.11
2018-10-02T11:16:36.580Z,49.34
2018-10-02T11:17:36.586Z,50.50
2018-10-02T11:18:36.610Z,51.46
2018-10-02T11:19:36.680Z,51.75
2018-10-02T11:20:36.740Z,51.46
2018-10-02T11:21:36.668Z,50.43
2018-10-02T11:22:36.691Z,50.69
2018-10-02T11:23:36.706Z,50.23
2018-10-02T11:24:36.723Z,49.75
2018-10-02T11:25:36.879Z,49.95
2018-10-02T11:26:36.766Z,49.46
2018-10-02T11:27:36.768Z,50.33
2018-10-02T11:28:36.783Z,49.68
2018-10-02T11:29:36.859Z,50.16
2018-10-02T11:30:36.964Z,47.74
2018-10-02T11:31:36.896Z,47.96
2018-10-02T11:32:36.869Z,48.64
2018-10-02T11:33:36.877Z,46.61
2018-10-02T11:34:36.894Z,46.51
2018-10-02T11:35:37.081Z,47.02
2018-10-02T11:36:36.939Z,45.86
2018-10-02T11:37:36.970Z,46.15
2018-10-02T11:38:36.981Z,46.15
2018-10-02T11:39:36.998Z,46.05
2018-10-02T11:40:37.107Z,46.15
2018-10-02T11:41:37.033Z,44.98
2018-10-02T11:42:37.057Z,44.62
2018-10-02T11:43:37.147Z,44.06
2018-10-02T11:44:37.131Z,43.31
2018-10-02T11:45:37.208Z,42.14
2018-10-02T11:46:37.133Z,40.61
2018-10-02T11:47:37.154Z,38.78
2018-10-02T11:48:37.173Z,40.13
2018-10-02T11:49:37.228Z,38.48
2018-10-02T11:50:37.305Z,38.48
2018-10-02T11:51:37.224Z,38.87
2018-10-02T11:52:37.253Z,38.29
2018-10-02T11:53:37.265Z,39.55
2018-10-02T11:54:37.285Z,38.39
2018-10-02T11:55:37.469Z,39.65
2018-10-02T11:56:37.332Z,39.74
2018-10-02T11:57:37.377Z,39.26
2018-10-02T11:58:37.371Z,38.99
2018-10-02T11:59:37.385Z,38.70
2018-10-02T12:00:37.593Z,39.76
2018-10-02T12:01:37.420Z,40.33
2018-10-02T12:02:37.463Z,39.65
2018-10-02T12:03:37.479Z,39.65
2018-10-02T12:04:37.494Z,40.33
2018-10-02T12:05:37.600Z,40.71
2018-10-02T12:06:37.561Z,40.33
2018-10-02T12:07:37.552Z,40.52
2018-10-02T12:08:37.577Z,39.26
2018-10-02T12:09:37.596Z,39.74
2018-10-02T12:10:37.703Z,38.40
2018-10-02T12:11:37.710Z,38.12
2018-10-02T12:12:37.645Z,37.05
2018-10-02T12:13:37.868Z,36.29
2018-10-02T12:14:37.738Z,36.29
2018-10-02T12:15:37.806Z,36.38
2018-10-02T12:16:37.734Z,36.60
2018-10-02T12:17:37.755Z,35.71
2018-10-02T12:18:37.766Z,37.35
2018-10-02T12:19:37.869Z,37.35
2018-10-02T12:20:37.962Z,36.69
2018-10-02T12:21:37.819Z,35.33
2018-10-02T12:22:37.862Z,35.63
2018-10-02T12:23:37.933Z,34.97
2018-10-02T12:24:37.881Z,35.35
2018-10-02T12:25:38.010Z,34.09
2018-10-02T12:26:37.932Z,33.80
2018-10-02T12:27:37.957Z,35.74
2018-10-02T12:28:37.973Z,34.77
2018-10-02T12:29:37.986Z,34.75
2018-10-02T12:30:38.118Z,34.09
2018-10-02T12:31:38.021Z,33.80
2018-10-02T12:32:38.058Z,32.75
2018-10-02T12:33:38.062Z,33.04
2018-10-02T12:34:38.083Z,32.07
2018-10-02T12:35:38.207Z,31.38
2018-10-02T12:36:38.136Z,31.79
2018-10-02T12:37:38.156Z,31.79
2018-10-02T12:38:38.213Z,31.40
2018-10-02T12:39:38.185Z,31.41
2018-10-02T12:40:38.322Z,30.64
2018-10-02T12:41:38.246Z,30.74
2018-10-02T12:42:38.271Z,30.93
2018-10-02T12:43:38.272Z,32.39
2018-10-02T12:44:38.296Z,31.32
2018-10-02T12:45:38.425Z,32.97
2018-10-02T12:46:38.351Z,31.41
2018-10-02T12:47:38.369Z,31.71
2018-10-02T12:48:38.392Z,31.32
2018-10-02T12:49:38.396Z,31.14
2018-10-02T12:50:38.529Z,31.04
2018-10-02T12:51:38.447Z,29.97
2018-10-02T12:52:38.600Z,29.02